Aeroporto :
LOGIN :

Iscrizione | Disclaimer

   EN    FR    IT 

 










Sommario :    VFR   VFR Marginale   IFR   IFR Intensivo   IFR Molto Intensivo
Visibilità : 
Base nubi : 
>= 8 km
>= 3000ft
5 / 8 km
1000 / 3000 ft
1500m / 5 km
500 / 1000 ft
800 / 1500m
200 / 500 ft
< 800m
< 200 ft
Simboli :   Temporali  Nebbia  Neve Forte  Precipitazioni Forti  Vento > 20 kt
SIGMETs :   Varie  Temporali  Ghiacco  Turbolenza  Onda orograficha  Ceneri Vulcaniche






- Altitudine del aeroporto : 276 ft
- Codice IATA : RBA


GMME - Rabat

ULTIMO METAR :
  • 252100Z 24007KT CAVOK 21/19 Q1015 NOSIG

METARs OBSOLETI :
  • 252030Z 26008KT CAVOK 21/19 Q1015 NOSIG
  • 252000Z 26008KT CAVOK 22/19 Q1015 NOSIG
  • 251930Z 26008KT CAVOK 23/19 Q1015 NOSIG
  • 251900Z 27007KT CAVOK 25/18 Q1015 NOSIG
  • 251830Z 27007KT CAVOK 26/18 Q1014 NOSIG

TAF TAF GMME
Valido dal 25 a 18 ore il 27 a 00 ore UTC


251700Z 2518/2624 36008KT CAVOK
TEMPO 2521/2606 VRB02KT 7000 SCT020
PROB30
TEMPO 2522/2604 3000 BR BKN010



MetMap, La meteo Aeronautica in un colpo d'occhio ! - Copyright ORBIFLY Dicembre 2007 - Disclaimer

ORBIFLY MET'MAP TEAM :

Programmazione e sviluppo : Alexandra Zaïnal
Concezione : Baudouin d'Aumeries
Aiuto per la programmazione : Marc-Olivier Méhu
Supporto tecnico e logistico : Manuel Goepfert
Aiuto per la traduzione : Arnaldo La Scala

Contatto : metmap@orbifly.com




FONTI E CREDITI :

   NOAA